sensor_id;sensor_type;location;lat;lon;timestamp;P1;durP1;ratioP1;P2;durP2;ratioP2
52104;SDS011;38103;42.776;23.112;2022-08-07T00:01:09;15.73;;;7.10;;
52104;SDS011;38103;42.776;23.112;2022-08-07T00:03:34;14.05;;;6.85;;
52104;SDS011;38103;42.776;23.112;2022-08-07T00:06:00;12.20;;;6.38;;
52104;SDS011;38103;42.776;23.112;2022-08-07T00:08:25;13.60;;;7.10;;
52104;SDS011;38103;42.776;23.112;2022-08-07T00:10:51;12.82;;;7.28;;
52104;SDS011;38103;42.776;23.112;2022-08-07T00:13:18;12.48;;;7.03;;
52104;SDS011;38103;42.776;23.112;2022-08-07T00:15:44;14.50;;;7.57;;
52104;SDS011;38103;42.776;23.112;2022-08-07T00:18:10;14.63;;;7.28;;
52104;SDS011;38103;42.776;23.112;2022-08-07T00:20:36;14.23;;;7.57;;
52104;SDS011;38103;42.776;23.112;2022-08-07T00:23:03;12.93;;;6.97;;
52104;SDS011;38103;42.776;23.112;2022-08-07T00:25:32;16.73;;;7.30;;
52104;SDS011;38103;42.776;23.112;2022-08-07T00:27:57;13.85;;;6.93;;
52104;SDS011;38103;42.776;23.112;2022-08-07T00:30:23;12.90;;;7.47;;
52104;SDS011;38103;42.776;23.112;2022-08-07T00:32:49;13.30;;;6.75;;
52104;SDS011;38103;42.776;23.112;2022-08-07T00:35:16;14.07;;;7.18;;
52104;SDS011;38103;42.776;23.112;2022-08-07T00:37:42;14.43;;;6.97;;
52104;SDS011;38103;42.776;23.112;2022-08-07T00:40:08;15.80;;;7.38;;
52104;SDS011;38103;42.776;23.112;2022-08-07T00:42:34;23.55;;;7.78;;
52104;SDS011;38103;42.776;23.112;2022-08-07T00:45:00;23.85;;;8.15;;
52104;SDS011;38103;42.776;23.112;2022-08-07T00:47:26;21.70;;;7.50;;
52104;SDS011;38103;42.776;23.112;2022-08-07T00:49:51;18.60;;;7.72;;
52104;SDS011;38103;42.776;23.112;2022-08-07T00:52:17;19.38;;;8.20;;
52104;SDS011;38103;42.776;23.112;2022-08-07T00:54:42;14.25;;;7.30;;
52104;SDS011;38103;42.776;23.112;2022-08-07T00:57:08;14.32;;;7.60;;
52104;SDS011;38103;42.776;23.112;2022-08-07T00:59:37;15.52;;;7.25;;
52104;SDS011;38103;42.776;23.112;2022-08-07T01:02:04;16.90;;;7.53;;
52104;SDS011;38103;42.776;23.112;2022-08-07T01:04:30;14.07;;;7.38;;
52104;SDS011;38103;42.776;23.112;2022-08-07T01:06:56;14.25;;;7.18;;
52104;SDS011;38103;42.776;23.112;2022-08-07T01:09:22;13.82;;;7.00;;
52104;SDS011;38103;42.776;23.112;2022-08-07T01:11:49;14.65;;;8.23;;
52104;SDS011;38103;42.776;23.112;2022-08-07T01:14:16;12.75;;;7.57;;
52104;SDS011;38103;42.776;23.112;2022-08-07T01:16:43;13.18;;;7.55;;
52104;SDS011;38103;42.776;23.112;2022-08-07T01:19:08;12.98;;;7.40;;
52104;SDS011;38103;42.776;23.112;2022-08-07T01:21:35;15.85;;;7.57;;
52104;SDS011;38103;42.776;23.112;2022-08-07T01:24:01;13.15;;;7.45;;
52104;SDS011;38103;42.776;23.112;2022-08-07T01:26:26;12.80;;;7.30;;
52104;SDS011;38103;42.776;23.112;2022-08-07T01:28:52;12.63;;;7.28;;
52104;SDS011;38103;42.776;23.112;2022-08-07T01:31:19;12.68;;;7.47;;
52104;SDS011;38103;42.776;23.112;2022-08-07T01:33:46;13.00;;;7.70;;
52104;SDS011;38103;42.776;23.112;2022-08-07T01:36:11;13.30;;;7.22;;
52104;SDS011;38103;42.776;23.112;2022-08-07T01:38:37;12.75;;;7.47;;
52104;SDS011;38103;42.776;23.112;2022-08-07T01:41:04;14.10;;;7.60;;
52104;SDS011;38103;42.776;23.112;2022-08-07T01:43:31;13.68;;;7.35;;
52104;SDS011;38103;42.776;23.112;2022-08-07T01:45:57;14.90;;;7.70;;
52104;SDS011;38103;42.776;23.112;2022-08-07T01:48:24;13.85;;;7.85;;
52104;SDS011;38103;42.776;23.112;2022-08-07T01:51:12;14.02;;;7.30;;
52104;SDS011;38103;42.776;23.112;2022-08-07T01:53:43;13.68;;;7.45;;
52104;SDS011;38103;42.776;23.112;2022-08-07T01:56:13;13.85;;;7.90;;
52104;SDS011;38103;42.776;23.112;2022-08-07T01:58:43;14.75;;;7.82;;
52104;SDS011;38103;42.776;23.112;2022-08-07T02:01:23;13.23;;;7.78;;
52104;SDS011;38103;42.776;23.112;2022-08-07T02:03:58;14.70;;;7.80;;
52104;SDS011;38103;42.776;23.112;2022-08-07T02:06:28;14.23;;;7.90;;
52104;SDS011;38103;42.776;23.112;2022-08-07T02:08:56;15.38;;;8.13;;
52104;SDS011;38103;42.776;23.112;2022-08-07T02:11:24;13.88;;;7.97;;
52104;SDS011;38103;42.776;23.112;2022-08-07T02:13:50;14.68;;;8.68;;
52104;SDS011;38103;42.776;23.112;2022-08-07T02:16:18;16.15;;;8.27;;
52104;SDS011;38103;42.776;23.112;2022-08-07T02:18:47;13.30;;;8.02;;
52104;SDS011;38103;42.776;23.112;2022-08-07T02:21:14;13.77;;;8.15;;
52104;SDS011;38103;42.776;23.112;2022-08-07T02:23:41;17.33;;;8.55;;
52104;SDS011;38103;42.776;23.112;2022-08-07T02:26:08;13.80;;;7.72;;
52104;SDS011;38103;42.776;23.112;2022-08-07T02:28:35;14.02;;;7.85;;
52104;SDS011;38103;42.776;23.112;2022-08-07T02:31:02;15.70;;;8.38;;
52104;SDS011;38103;42.776;23.112;2022-08-07T02:33:30;15.82;;;7.72;;
52104;SDS011;38103;42.776;23.112;2022-08-07T02:35:58;15.05;;;8.18;;
52104;SDS011;38103;42.776;23.112;2022-08-07T02:38:26;14.18;;;8.15;;
52104;SDS011;38103;42.776;23.112;2022-08-07T02:40:54;15.35;;;8.77;;
52104;SDS011;38103;42.776;23.112;2022-08-07T02:43:21;13.32;;;7.82;;
52104;SDS011;38103;42.776;23.112;2022-08-07T02:45:47;17.45;;;8.60;;
52104;SDS011;38103;42.776;23.112;2022-08-07T02:48:13;14.88;;;8.20;;
52104;SDS011;38103;42.776;23.112;2022-08-07T02:50:40;15.05;;;8.52;;
52104;SDS011;38103;42.776;23.112;2022-08-07T02:53:11;13.88;;;8.23;;
52104;SDS011;38103;42.776;23.112;2022-08-07T02:55:43;14.13;;;8.63;;
52104;SDS011;38103;42.776;23.112;2022-08-07T02:58:12;16.55;;;8.07;;
52104;SDS011;38103;42.776;23.112;2022-08-07T03:00:41;15.15;;;7.50;;
52104;SDS011;38103;42.776;23.112;2022-08-07T03:03:09;12.75;;;7.40;;
52104;SDS011;38103;42.776;23.112;2022-08-07T03:05:36;13.88;;;8.38;;
52104;SDS011;38103;42.776;23.112;2022-08-07T03:08:05;15.32;;;8.13;;
52104;SDS011;38103;42.776;23.112;2022-08-07T03:10:32;13.85;;;7.95;;
52104;SDS011;38103;42.776;23.112;2022-08-07T03:12:58;14.48;;;7.80;;
52104;SDS011;38103;42.776;23.112;2022-08-07T03:15:24;14.10;;;8.10;;
52104;SDS011;38103;42.776;23.112;2022-08-07T03:17:51;14.38;;;7.70;;
52104;SDS011;38103;42.776;23.112;2022-08-07T03:20:16;12.52;;;7.32;;
52104;SDS011;38103;42.776;23.112;2022-08-07T03:22:42;13.73;;;7.45;;
52104;SDS011;38103;42.776;23.112;2022-08-07T03:25:09;13.32;;;7.90;;
52104;SDS011;38103;42.776;23.112;2022-08-07T03:27:34;13.00;;;7.85;;
52104;SDS011;38103;42.776;23.112;2022-08-07T03:30:00;12.82;;;7.82;;
52104;SDS011;38103;42.776;23.112;2022-08-07T03:32:30;13.15;;;7.57;;
52104;SDS011;38103;42.776;23.112;2022-08-07T03:34:59;13.82;;;7.20;;
52104;SDS011;38103;42.776;23.112;2022-08-07T03:37:28;14.80;;;7.03;;
52104;SDS011;38103;42.776;23.112;2022-08-07T03:39:55;15.50;;;7.20;;
52104;SDS011;38103;42.776;23.112;2022-08-07T03:42:21;13.32;;;7.10;;
52104;SDS011;38103;42.776;23.112;2022-08-07T03:44:47;12.90;;;6.80;;
52104;SDS011;38103;42.776;23.112;2022-08-07T03:47:13;12.40;;;6.88;;
52104;SDS011;38103;42.776;23.112;2022-08-07T03:49:39;14.85;;;6.95;;
52104;SDS011;38103;42.776;23.112;2022-08-07T03:52:06;12.32;;;6.95;;
52104;SDS011;38103;42.776;23.112;2022-08-07T03:54:33;13.57;;;7.05;;
52104;SDS011;38103;42.776;23.112;2022-08-07T03:56:59;13.05;;;6.70;;
52104;SDS011;38103;42.776;23.112;2022-08-07T03:59:26;15.95;;;6.75;;
52104;SDS011;38103;42.776;23.112;2022-08-07T04:01:53;13.25;;;6.82;;
52104;SDS011;38103;42.776;23.112;2022-08-07T04:04:20;12.77;;;6.45;;
52104;SDS011;38103;42.776;23.112;2022-08-07T04:06:45;12.48;;;6.80;;
52104;SDS011;38103;42.776;23.112;2022-08-07T04:09:11;13.40;;;6.85;;
52104;SDS011;38103;42.776;23.112;2022-08-07T04:11:38;12.07;;;6.13;;
52104;SDS011;38103;42.776;23.112;2022-08-07T04:14:04;11.43;;;6.03;;
52104;SDS011;38103;42.776;23.112;2022-08-07T04:16:31;13.38;;;6.68;;
52104;SDS011;38103;42.776;23.112;2022-08-07T04:18:56;13.98;;;6.28;;
52104;SDS011;38103;42.776;23.112;2022-08-07T04:21:22;12.40;;;6.20;;
52104;SDS011;38103;42.776;23.112;2022-08-07T04:23:47;11.88;;;6.00;;
52104;SDS011;38103;42.776;23.112;2022-08-07T04:26:14;11.48;;;6.00;;
52104;SDS011;38103;42.776;23.112;2022-08-07T04:28:40;13.75;;;6.53;;
52104;SDS011;38103;42.776;23.112;2022-08-07T04:31:07;11.48;;;6.18;;
52104;SDS011;38103;42.776;23.112;2022-08-07T04:33:33;10.88;;;5.70;;
52104;SDS011;38103;42.776;23.112;2022-08-07T04:36:00;13.60;;;6.40;;
52104;SDS011;38103;42.776;23.112;2022-08-07T04:38:26;12.52;;;6.63;;
52104;SDS011;38103;42.776;23.112;2022-08-07T04:40:52;11.93;;;6.40;;
52104;SDS011;38103;42.776;23.112;2022-08-07T04:43:20;11.38;;;6.18;;
52104;SDS011;38103;42.776;23.112;2022-08-07T04:51:09;13.35;;;6.28;;
52104;SDS011;38103;42.776;23.112;2022-08-07T04:53:45;12.40;;;6.25;;
52104;SDS011;38103;42.776;23.112;2022-08-07T04:56:23;11.88;;;6.22;;
52104;SDS011;38103;42.776;23.112;2022-08-07T04:58:53;12.70;;;6.47;;
52104;SDS011;38103;42.776;23.112;2022-08-07T05:04:32;12.48;;;6.80;;
52104;SDS011;38103;42.776;23.112;2022-08-07T05:07:10;12.48;;;6.47;;
52104;SDS011;38103;42.776;23.112;2022-08-07T05:12:47;14.07;;;6.72;;
52104;SDS011;38103;42.776;23.112;2022-08-07T05:15:27;11.20;;;5.90;;
52104;SDS011;38103;42.776;23.112;2022-08-07T05:18:00;11.73;;;6.43;;
52104;SDS011;38103;42.776;23.112;2022-08-07T05:20:30;12.07;;;6.38;;
52104;SDS011;38103;42.776;23.112;2022-08-07T05:23:00;12.27;;;6.32;;
52104;SDS011;38103;42.776;23.112;2022-08-07T05:25:31;12.15;;;6.45;;
52104;SDS011;38103;42.776;23.112;2022-08-07T05:27:57;11.82;;;6.13;;
52104;SDS011;38103;42.776;23.112;2022-08-07T05:30:24;12.32;;;6.55;;
52104;SDS011;38103;42.776;23.112;2022-08-07T05:32:51;11.60;;;6.32;;
52104;SDS011;38103;42.776;23.112;2022-08-07T05:35:18;11.60;;;5.65;;
52104;SDS011;38103;42.776;23.112;2022-08-07T05:37:45;12.90;;;6.13;;
52104;SDS011;38103;42.776;23.112;2022-08-07T05:40:12;11.73;;;6.18;;
52104;SDS011;38103;42.776;23.112;2022-08-07T05:42:38;11.40;;;6.18;;
52104;SDS011;38103;42.776;23.112;2022-08-07T05:45:04;11.48;;;6.25;;
52104;SDS011;38103;42.776;23.112;2022-08-07T05:47:30;11.60;;;6.20;;
52104;SDS011;38103;42.776;23.112;2022-08-07T05:49:56;15.88;;;6.63;;
52104;SDS011;38103;42.776;23.112;2022-08-07T05:52:22;11.45;;;6.10;;
52104;SDS011;38103;42.776;23.112;2022-08-07T05:54:48;12.43;;;6.63;;
52104;SDS011;38103;42.776;23.112;2022-08-07T05:57:13;15.07;;;6.80;;
52104;SDS011;38103;42.776;23.112;2022-08-07T05:59:41;15.32;;;7.05;;
52104;SDS011;38103;42.776;23.112;2022-08-07T06:02:08;14.70;;;7.47;;
52104;SDS011;38103;42.776;23.112;2022-08-07T06:04:39;13.85;;;7.43;;
52104;SDS011;38103;42.776;23.112;2022-08-07T06:07:10;12.20;;;6.50;;
52104;SDS011;38103;42.776;23.112;2022-08-07T06:09:35;13.38;;;6.85;;
52104;SDS011;38103;42.776;23.112;2022-08-07T06:12:02;15.93;;;7.43;;
52104;SDS011;38103;42.776;23.112;2022-08-07T06:14:27;15.35;;;6.88;;
52104;SDS011;38103;42.776;23.112;2022-08-07T06:16:53;13.50;;;6.35;;
52104;SDS011;38103;42.776;23.112;2022-08-07T06:19:19;12.00;;;6.30;;
52104;SDS011;38103;42.776;23.112;2022-08-07T06:21:45;13.07;;;5.97;;
52104;SDS011;38103;42.776;23.112;2022-08-07T06:24:11;12.55;;;5.88;;
52104;SDS011;38103;42.776;23.112;2022-08-07T06:26:38;12.52;;;6.28;;
52104;SDS011;38103;42.776;23.112;2022-08-07T06:29:04;11.13;;;5.75;;
52104;SDS011;38103;42.776;23.112;2022-08-07T06:31:30;13.10;;;6.18;;
52104;SDS011;38103;42.776;23.112;2022-08-07T06:33:56;14.73;;;6.38;;
52104;SDS011;38103;42.776;23.112;2022-08-07T06:36:21;12.10;;;6.45;;
52104;SDS011;38103;42.776;23.112;2022-08-07T06:38:50;11.25;;;6.20;;
52104;SDS011;38103;42.776;23.112;2022-08-07T06:41:17;12.00;;;6.00;;
52104;SDS011;38103;42.776;23.112;2022-08-07T06:43:48;13.40;;;7.05;;
52104;SDS011;38103;42.776;23.112;2022-08-07T06:46:14;16.20;;;7.88;;
52104;SDS011;38103;42.776;23.112;2022-08-07T06:48:40;13.77;;;6.95;;
52104;SDS011;38103;42.776;23.112;2022-08-07T06:51:07;15.82;;;8.32;;
52104;SDS011;38103;42.776;23.112;2022-08-07T06:53:34;12.80;;;7.15;;
52104;SDS011;38103;42.776;23.112;2022-08-07T06:56:05;12.10;;;6.68;;
52104;SDS011;38103;42.776;23.112;2022-08-07T06:58:33;13.98;;;6.68;;
52104;SDS011;38103;42.776;23.112;2022-08-07T07:01:01;14.02;;;6.63;;
52104;SDS011;38103;42.776;23.112;2022-08-07T07:03:29;12.10;;;6.72;;
52104;SDS011;38103;42.776;23.112;2022-08-07T07:05:56;12.13;;;6.40;;
52104;SDS011;38103;42.776;23.112;2022-08-07T07:08:26;12.73;;;6.53;;
52104;SDS011;38103;42.776;23.112;2022-08-07T07:10:52;14.07;;;6.70;;
52104;SDS011;38103;42.776;23.112;2022-08-07T07:13:22;13.05;;;6.90;;
52104;SDS011;38103;42.776;23.112;2022-08-07T07:15:56;13.73;;;7.03;;
52104;SDS011;38103;42.776;23.112;2022-08-07T07:18:43;15.07;;;6.75;;
52104;SDS011;38103;42.776;23.112;2022-08-07T07:23:47;12.63;;;6.13;;
52104;SDS011;38103;42.776;23.112;2022-08-07T07:26:14;12.18;;;6.57;;
52104;SDS011;38103;42.776;23.112;2022-08-07T07:31:22;12.10;;;6.10;;
52104;SDS011;38103;42.776;23.112;2022-08-07T07:33:53;12.93;;;6.75;;
52104;SDS011;38103;42.776;23.112;2022-08-07T07:36:23;13.65;;;6.30;;
52104;SDS011;38103;42.776;23.112;2022-08-07T07:38:50;13.38;;;6.63;;
52104;SDS011;38103;42.776;23.112;2022-08-07T07:41:15;14.38;;;6.57;;
52104;SDS011;38103;42.776;23.112;2022-08-07T07:43:43;12.98;;;6.85;;
52104;SDS011;38103;42.776;23.112;2022-08-07T07:46:11;13.35;;;6.65;;
52104;SDS011;38103;42.776;23.112;2022-08-07T07:48:38;15.55;;;7.03;;
52104;SDS011;38103;42.776;23.112;2022-08-07T07:51:05;14.10;;;6.55;;
52104;SDS011;38103;42.776;23.112;2022-08-07T07:53:31;12.48;;;6.80;;
52104;SDS011;38103;42.776;23.112;2022-08-07T07:55:58;13.13;;;6.68;;
52104;SDS011;38103;42.776;23.112;2022-08-07T07:58:26;12.73;;;6.72;;
52104;SDS011;38103;42.776;23.112;2022-08-07T08:00:55;12.85;;;6.82;;
52104;SDS011;38103;42.776;23.112;2022-08-07T08:03:22;13.30;;;6.68;;
52104;SDS011;38103;42.776;23.112;2022-08-07T08:05:48;13.85;;;6.68;;
52104;SDS011;38103;42.776;23.112;2022-08-07T08:08:15;12.40;;;7.10;;
52104;SDS011;38103;42.776;23.112;2022-08-07T08:10:41;12.80;;;7.15;;
52104;SDS011;38103;42.776;23.112;2022-08-07T08:13:08;15.23;;;7.05;;
52104;SDS011;38103;42.776;23.112;2022-08-07T08:15:37;14.45;;;7.13;;
52104;SDS011;38103;42.776;23.112;2022-08-07T08:18:07;13.40;;;7.30;;
52104;SDS011;38103;42.776;23.112;2022-08-07T08:20:33;11.70;;;6.97;;
52104;SDS011;38103;42.776;23.112;2022-08-07T08:23:01;13.60;;;6.72;;
52104;SDS011;38103;42.776;23.112;2022-08-07T08:25:46;12.85;;;6.70;;
52104;SDS011;38103;42.776;23.112;2022-08-07T08:28:38;12.63;;;7.43;;
52104;SDS011;38103;42.776;23.112;2022-08-07T08:31:09;11.90;;;6.15;;
52104;SDS011;38103;42.776;23.112;2022-08-07T08:33:38;12.45;;;7.07;;
52104;SDS011;38103;42.776;23.112;2022-08-07T08:36:06;14.68;;;7.10;;
52104;SDS011;38103;42.776;23.112;2022-08-07T08:38:37;13.25;;;7.13;;
52104;SDS011;38103;42.776;23.112;2022-08-07T08:44:07;13.25;;;7.78;;
52104;SDS011;38103;42.776;23.112;2022-08-07T08:47:13;13.77;;;7.50;;
52104;SDS011;38103;42.776;23.112;2022-08-07T08:52:21;13.05;;;7.13;;
52104;SDS011;38103;42.776;23.112;2022-08-07T08:57:40;12.88;;;7.47;;
52104;SDS011;38103;42.776;23.112;2022-08-07T09:00:13;14.18;;;7.90;;
52104;SDS011;38103;42.776;23.112;2022-08-07T09:03:44;12.70;;;6.68;;
52104;SDS011;38103;42.776;23.112;2022-08-07T09:06:17;13.18;;;7.30;;
52104;SDS011;38103;42.776;23.112;2022-08-07T09:09:02;13.02;;;7.30;;
52104;SDS011;38103;42.776;23.112;2022-08-07T09:11:44;12.52;;;6.47;;
52104;SDS011;38103;42.776;23.112;2022-08-07T09:14:19;13.10;;;7.15;;
52104;SDS011;38103;42.776;23.112;2022-08-07T09:17:11;12.45;;;7.15;;
52104;SDS011;38103;42.776;23.112;2022-08-07T09:19:54;16.02;;;7.30;;
52104;SDS011;38103;42.776;23.112;2022-08-07T09:25:43;14.25;;;6.70;;
52104;SDS011;38103;42.776;23.112;2022-08-07T09:28:37;11.23;;;6.33;;
52104;SDS011;38103;42.776;23.112;2022-08-07T09:31:12;13.30;;;6.45;;
52104;SDS011;38103;42.776;23.112;2022-08-07T09:36:29;12.32;;;6.80;;
52104;SDS011;38103;42.776;23.112;2022-08-07T09:50:12;13.18;;;6.85;;
52104;SDS011;38103;42.776;23.112;2022-08-07T09:53:01;15.50;;;6.55;;
52104;SDS011;38103;42.776;23.112;2022-08-07T10:10:05;20.10;;;7.40;;
52104;SDS011;38103;42.776;23.112;2022-08-07T10:35:15;19.35;;;10.80;;
52104;SDS011;38103;42.776;23.112;2022-08-07T10:40:44;13.68;;;7.20;;
52104;SDS011;38103;42.776;23.112;2022-08-07T10:43:16;12.40;;;6.82;;
52104;SDS011;38103;42.776;23.112;2022-08-07T10:45:48;13.40;;;7.53;;
52104;SDS011;38103;42.776;23.112;2022-08-07T10:51:09;13.52;;;6.88;;
52104;SDS011;38103;42.776;23.112;2022-08-07T11:01:37;17.05;;;7.97;;
52104;SDS011;38103;42.776;23.112;2022-08-07T11:09:46;14.88;;;7.25;;
52104;SDS011;38103;42.776;23.112;2022-08-07T11:12:18;14.32;;;7.60;;
52104;SDS011;38103;42.776;23.112;2022-08-07T11:14:51;13.25;;;6.97;;
52104;SDS011;38103;42.776;23.112;2022-08-07T11:22:48;16.35;;;7.55;;
52104;SDS011;38103;42.776;23.112;2022-08-07T11:26:00;15.02;;;7.38;;
52104;SDS011;38103;42.776;23.112;2022-08-07T11:28:24;11.88;;;6.55;;
52104;SDS011;38103;42.776;23.112;2022-08-07T11:31:03;12.98;;;6.60;;
52104;SDS011;38103;42.776;23.112;2022-08-07T11:33:45;13.13;;;7.72;;
52104;SDS011;38103;42.776;23.112;2022-08-07T11:39:02;13.60;;;7.40;;
52104;SDS011;38103;42.776;23.112;2022-08-07T11:41:46;12.95;;;7.28;;
52104;SDS011;38103;42.776;23.112;2022-08-07T11:44:31;15.07;;;8.38;;
52104;SDS011;38103;42.776;23.112;2022-08-07T11:47:28;13.93;;;8.10;;
52104;SDS011;38103;42.776;23.112;2022-08-07T11:50:21;14.93;;;7.78;;
52104;SDS011;38103;42.776;23.112;2022-08-07T12:04:15;12.85;;;6.75;;
52104;SDS011;38103;42.776;23.112;2022-08-07T12:09:14;12.70;;;6.85;;
52104;SDS011;38103;42.776;23.112;2022-08-07T12:12:05;15.52;;;7.78;;
52104;SDS011;38103;42.776;23.112;2022-08-07T12:14:47;14.68;;;7.13;;
52104;SDS011;38103;42.776;23.112;2022-08-07T12:17:16;13.10;;;7.75;;
52104;SDS011;38103;42.776;23.112;2022-08-07T12:22:21;13.73;;;7.70;;
52104;SDS011;38103;42.776;23.112;2022-08-07T12:28:26;12.77;;;7.07;;
52104;SDS011;38103;42.776;23.112;2022-08-07T12:31:00;12.90;;;7.43;;
52104;SDS011;38103;42.776;23.112;2022-08-07T12:33:32;13.10;;;6.80;;
52104;SDS011;38103;42.776;23.112;2022-08-07T12:35:58;12.80;;;6.75;;
52104;SDS011;38103;42.776;23.112;2022-08-07T12:38:26;12.27;;;6.18;;
52104;SDS011;38103;42.776;23.112;2022-08-07T12:40:53;14.45;;;7.05;;
52104;SDS011;38103;42.776;23.112;2022-08-07T12:43:24;11.90;;;6.72;;
52104;SDS011;38103;42.776;23.112;2022-08-07T12:48:40;11.90;;;6.15;;
52104;SDS011;38103;42.776;23.112;2022-08-07T12:51:18;14.23;;;7.35;;
52104;SDS011;38103;42.776;23.112;2022-08-07T12:53:49;12.18;;;6.32;;
52104;SDS011;38103;42.776;23.112;2022-08-07T12:59:00;12.35;;;6.22;;
52104;SDS011;38103;42.776;23.112;2022-08-07T13:01:41;12.10;;;6.28;;
52104;SDS011;38103;42.776;23.112;2022-08-07T13:20:53;13.18;;;7.63;;
52104;SDS011;38103;42.776;23.112;2022-08-07T13:23:41;12.80;;;7.43;;
52104;SDS011;38103;42.776;23.112;2022-08-07T13:28:48;12.77;;;7.25;;
52104;SDS011;38103;42.776;23.112;2022-08-07T13:34:02;14.23;;;7.47;;
52104;SDS011;38103;42.776;23.112;2022-08-07T13:36:41;13.43;;;6.90;;
52104;SDS011;38103;42.776;23.112;2022-08-07T13:39:16;14.73;;;7.85;;
52104;SDS011;38103;42.776;23.112;2022-08-07T13:41:48;12.82;;;7.07;;
52104;SDS011;38103;42.776;23.112;2022-08-07T13:44:17;12.55;;;7.15;;
52104;SDS011;38103;42.776;23.112;2022-08-07T13:46:46;14.02;;;7.28;;
52104;SDS011;38103;42.776;23.112;2022-08-07T13:49:12;13.25;;;6.82;;
52104;SDS011;38103;42.776;23.112;2022-08-07T13:51:42;14.43;;;7.18;;
52104;SDS011;38103;42.776;23.112;2022-08-07T13:54:11;16.55;;;7.85;;
52104;SDS011;38103;42.776;23.112;2022-08-07T13:56:39;13.13;;;7.13;;
52104;SDS011;38103;42.776;23.112;2022-08-07T13:59:28;13.23;;;7.45;;
52104;SDS011;38103;42.776;23.112;2022-08-07T14:02:03;12.77;;;7.00;;
52104;SDS011;38103;42.776;23.112;2022-08-07T14:04:36;14.77;;;6.93;;
52104;SDS011;38103;42.776;23.112;2022-08-07T14:07:04;12.82;;;7.30;;
52104;SDS011;38103;42.776;23.112;2022-08-07T14:09:31;13.43;;;7.75;;
52104;SDS011;38103;42.776;23.112;2022-08-07T14:12:02;16.65;;;7.00;;
52104;SDS011;38103;42.776;23.112;2022-08-07T14:14:37;14.73;;;5.80;;
52104;SDS011;38103;42.776;23.112;2022-08-07T14:17:10;17.35;;;6.30;;
52104;SDS011;38103;42.776;23.112;2022-08-07T14:19:43;11.77;;;6.05;;
52104;SDS011;38103;42.776;23.112;2022-08-07T14:22:16;11.88;;;5.90;;
52104;SDS011;38103;42.776;23.112;2022-08-07T14:24:48;11.27;;;5.80;;
52104;SDS011;38103;42.776;23.112;2022-08-07T14:27:25;11.35;;;5.65;;
52104;SDS011;38103;42.776;23.112;2022-08-07T14:30:00;11.90;;;6.10;;
52104;SDS011;38103;42.776;23.112;2022-08-07T14:32:28;11.77;;;6.35;;
52104;SDS011;38103;42.776;23.112;2022-08-07T14:35:00;14.65;;;6.78;;
52104;SDS011;38103;42.776;23.112;2022-08-07T14:37:27;12.73;;;7.10;;
52104;SDS011;38103;42.776;23.112;2022-08-07T14:39:53;11.88;;;6.55;;
52104;SDS011;38103;42.776;23.112;2022-08-07T14:42:22;14.07;;;7.00;;
52104;SDS011;38103;42.776;23.112;2022-08-07T14:44:52;13.20;;;7.45;;
52104;SDS011;38103;42.776;23.112;2022-08-07T14:47:22;15.10;;;7.72;;
52104;SDS011;38103;42.776;23.112;2022-08-07T14:49:49;16.58;;;8.20;;
52104;SDS011;38103;42.776;23.112;2022-08-07T14:52:17;14.13;;;8.13;;
52104;SDS011;38103;42.776;23.112;2022-08-07T14:54:44;13.70;;;7.88;;
52104;SDS011;38103;42.776;23.112;2022-08-07T14:57:13;14.43;;;8.07;;
52104;SDS011;38103;42.776;23.112;2022-08-07T14:59:40;13.90;;;8.10;;
52104;SDS011;38103;42.776;23.112;2022-08-07T15:02:14;16.05;;;7.85;;
52104;SDS011;38103;42.776;23.112;2022-08-07T15:04:43;12.77;;;7.97;;
52104;SDS011;38103;42.776;23.112;2022-08-07T15:07:15;16.15;;;7.95;;
52104;SDS011;38103;42.776;23.112;2022-08-07T15:09:43;13.10;;;7.38;;
52104;SDS011;38103;42.776;23.112;2022-08-07T15:12:13;14.13;;;7.90;;
52104;SDS011;38103;42.776;23.112;2022-08-07T15:14:48;14.38;;;8.10;;
52104;SDS011;38103;42.776;23.112;2022-08-07T15:17:17;13.15;;;7.72;;
52104;SDS011;38103;42.776;23.112;2022-08-07T15:19:52;13.88;;;7.68;;
52104;SDS011;38103;42.776;23.112;2022-08-07T15:22:26;13.02;;;7.45;;
52104;SDS011;38103;42.776;23.112;2022-08-07T15:24:54;13.00;;;7.60;;
52104;SDS011;38103;42.776;23.112;2022-08-07T15:27:22;13.93;;;8.20;;
52104;SDS011;38103;42.776;23.112;2022-08-07T15:29:50;15.15;;;7.85;;
52104;SDS011;38103;42.776;23.112;2022-08-07T15:32:22;15.18;;;8.50;;
52104;SDS011;38103;42.776;23.112;2022-08-07T15:34:54;13.50;;;8.32;;
52104;SDS011;38103;42.776;23.112;2022-08-07T15:37:25;14.70;;;8.55;;
52104;SDS011;38103;42.776;23.112;2022-08-07T15:39:54;13.27;;;8.38;;
52104;SDS011;38103;42.776;23.112;2022-08-07T15:45:10;14.30;;;8.88;;
52104;SDS011;38103;42.776;23.112;2022-08-07T15:47:39;13.48;;;8.55;;
52104;SDS011;38103;42.776;23.112;2022-08-07T15:50:13;15.18;;;8.43;;
52104;SDS011;38103;42.776;23.112;2022-08-07T15:52:41;16.80;;;8.02;;
52104;SDS011;38103;42.776;23.112;2022-08-07T15:55:10;14.55;;;7.88;;
52104;SDS011;38103;42.776;23.112;2022-08-07T15:57:40;13.90;;;8.30;;
52104;SDS011;38103;42.776;23.112;2022-08-07T16:00:10;14.30;;;8.20;;
52104;SDS011;38103;42.776;23.112;2022-08-07T16:02:40;16.40;;;8.80;;
52104;SDS011;38103;42.776;23.112;2022-08-07T16:05:10;17.30;;;8.55;;
52104;SDS011;38103;42.776;23.112;2022-08-07T16:07:41;13.77;;;8.38;;
52104;SDS011;38103;42.776;23.112;2022-08-07T16:32:18;16.77;;;9.20;;
52104;SDS011;38103;42.776;23.112;2022-08-07T16:34:50;15.82;;;8.93;;
52104;SDS011;38103;42.776;23.112;2022-08-07T16:40:28;26.98;;;12.93;;
52104;SDS011;38103;42.776;23.112;2022-08-07T16:48:41;14.70;;;9.25;;
52104;SDS011;38103;42.776;23.112;2022-08-07T17:08:08;14.57;;;9.18;;
52104;SDS011;38103;42.776;23.112;2022-08-07T17:10:49;14.95;;;9.20;;
52104;SDS011;38103;42.776;23.112;2022-08-07T17:16:19;15.43;;;8.70;;
52104;SDS011;38103;42.776;23.112;2022-08-07T17:19:10;18.02;;;8.73;;
52104;SDS011;38103;42.776;23.112;2022-08-07T17:21:46;18.48;;;9.13;;
52104;SDS011;38103;42.776;23.112;2022-08-07T17:24:18;15.38;;;8.80;;
52104;SDS011;38103;42.776;23.112;2022-08-07T17:34:56;17.05;;;9.13;;
52104;SDS011;38103;42.776;23.112;2022-08-07T17:37:34;15.32;;;9.45;;
52104;SDS011;38103;42.776;23.112;2022-08-07T17:40:13;19.42;;;10.23;;
52104;SDS011;38103;42.776;23.112;2022-08-07T17:43:00;19.40;;;9.55;;
52104;SDS011;38103;42.776;23.112;2022-08-07T17:45:31;16.48;;;9.27;;
52104;SDS011;38103;42.776;23.112;2022-08-07T17:48:04;14.15;;;8.93;;
52104;SDS011;38103;42.776;23.112;2022-08-07T17:53:21;14.95;;;8.68;;
52104;SDS011;38103;42.776;23.112;2022-08-07T18:01:13;16.02;;;9.20;;
52104;SDS011;38103;42.776;23.112;2022-08-07T18:06:28;16.48;;;9.38;;
52104;SDS011;38103;42.776;23.112;2022-08-07T18:08:58;16.52;;;9.23;;
52104;SDS011;38103;42.776;23.112;2022-08-07T18:11:39;14.85;;;9.30;;
52104;SDS011;38103;42.776;23.112;2022-08-07T18:14:20;15.05;;;9.05;;
52104;SDS011;38103;42.776;23.112;2022-08-07T18:16:52;15.60;;;8.95;;
52104;SDS011;38103;42.776;23.112;2022-08-07T18:19:24;17.95;;;9.35;;
52104;SDS011;38103;42.776;23.112;2022-08-07T18:22:00;15.02;;;9.40;;
52104;SDS011;38103;42.776;23.112;2022-08-07T18:30:03;14.55;;;9.05;;
52104;SDS011;38103;42.776;23.112;2022-08-07T18:35:15;18.67;;;9.90;;